Terminal Aerodrome Forecast
Issued by NWS Cleveland, OH

Home | Current Version | Previous Version | Text Only | Print | Product List | Glossary On
Versions: 1 2 3 4 5 6 7 8 9 10 11 12 13 14 15 16
968
FTUS41 KCLE 300529
TAFERI
TAF
KERI 300529Z 3006/0106 VRB03KT P6SM FEW020
     FM300900 10005KT P6SM OVC020
     FM301800 06015KT P6SM SCT020 BKN150
     FM010100 09012KT 6SM -RA OVC040
     FM010400 10010KT 3SM -RA OVC035=

USA.gov is the U.S. government's official web portal to all federal, state and local government web resources and services.